Time,TemperatureF,DewpointF,PressureIn,WindDirection,WindDirectionDegrees,WindSpeedMPH,WindSpeedGustMPH,Humidity,HourlyPrecipIn,Conditions,Clouds,dailyrainin,SoftwareType,DateUTC
2013-07-12 00:00:00,69.0,67.8,29.87,NNW,346,0.0,0.0,96,0.00,,,0.00,Wunderground v.1.15,2013-07-12 04:00:00,
2013-07-12 00:05:00,68.9,67.7,29.87,NNW,346,0.0,0.0,96,0.00,,,0.00,Wunderground v.1.15,2013-07-12 04:05:00,
2013-07-12 00:10:00,68.8,67.6,29.87,NNW,346,0.0,0.0,96,0.00,,,0.00,Wunderground v.1.15,2013-07-12 04:10:00,
2013-07-12 00:15:00,68.7,67.5,29.87,NNW,346,0.0,0.0,96,0.00,,,0.00,Wunderground v.1.15,2013-07-12 04:15:00,
2013-07-12 00:25:00,68.5,67.6,29.87,NNW,346,0.0,0.0,97,0.00,,,0.00,Wunderground v.1.15,2013-07-12 04:25:00,
2013-07-12 00:30:00,68.5,67.6,29.86,NNW,346,0.0,0.0,97,0.00,,,0.00,Wunderground v.1.15,2013-07-12 04:30:00,
2013-07-12 00:35:00,68.4,67.5,29.86,NNW,346,0.0,0.0,97,0.00,,,0.00,Wunderground v.1.15,2013-07-12 04:35:00,
2013-07-12 00:40:00,68.3,67.1,29.86,NNW,346,0.0,0.0,96,0.00,,,0.00,Wunderground v.1.15,2013-07-12 04:40:00,
2013-07-12 00:50:00,68.0,66.8,29.86,NNW,346,0.0,0.0,96,0.00,,,0.00,Wunderground v.1.15,2013-07-12 04:50:00,
2013-07-12 00:55:00,67.8,66.6,29.86,NNW,346,0.0,0.0,96,0.00,,,0.00,Wunderground v.1.15,2013-07-12 04:55:00,
2013-07-12 01:00:00,67.6,66.4,29.85,NNW,346,0.0,0.0,96,0.00,,,0.00,Wunderground v.1.15,2013-07-12 05:00:00,
2013-07-12 01:05:00,67.6,66.7,29.86,NNW,346,0.0,0.0,97,0.00,,,0.00,Wunderground v.1.15,2013-07-12 05:05:00,
2013-07-12 01:15:00,67.4,66.5,29.85,NNW,346,0.0,0.0,97,0.00,,,0.00,Wunderground v.1.15,2013-07-12 05:15:00,
2013-07-12 01:25:00,67.3,66.4,29.85,NNW,346,0.0,0.0,97,0.00,,,0.00,Wunderground v.1.15,2013-07-12 05:25:00,
2013-07-12 01:30:00,67.4,66.5,29.85,NNW,346,0.0,0.0,97,0.00,,,0.00,Wunderground v.1.15,2013-07-12 05:30:00,
2013-07-12 01:40:00,67.3,66.4,29.86,NNW,346,0.0,0.0,97,0.00,,,0.00,Wunderground v.1.15,2013-07-12 05:40:00,
2013-07-12 01:45:00,67.2,66.3,29.85,NNW,346,0.0,0.0,97,0.00,,,0.00,Wunderground v.1.15,2013-07-12 05:45:00,
2013-07-12 01:55:00,67.1,66.2,29.85,NNW,346,0.0,0.0,97,0.00,,,0.00,Wunderground v.1.15,2013-07-12 05:55:00,
2013-07-12 02:00:00,67.1,66.2,29.85,NNW,346,0.0,0.0,97,0.00,,,0.00,Wunderground v.1.15,2013-07-12 06:00:00,
2013-07-12 02:05:00,67.1,66.2,29.85,NNW,346,0.0,0.0,97,0.00,,,0.00,Wunderground v.1.15,2013-07-12 06:05:00,
2013-07-12 02:10:00,67.0,66.1,29.86,NNW,346,0.0,0.0,97,0.00,,,0.00,Wunderground v.1.15,2013-07-12 06:10:00,
2013-07-12 02:20:00,67.0,66.1,29.86,NNW,346,0.0,0.0,97,0.00,,,0.00,Wunderground v.1.15,2013-07-12 06:20:00,
2013-07-12 02:30:00,66.9,66.0,29.86,NNW,346,0.0,0.0,97,0.00,,,0.00,Wunderground v.1.15,2013-07-12 06:30:00,
2013-07-12 02:40:00,66.7,65.8,29.86,NNW,346,0.0,0.0,97,0.00,,,0.00,Wunderground v.1.15,2013-07-12 06:40:00,
2013-07-12 02:45:00,66.7,65.8,29.86,NNW,346,0.0,0.0,97,0.00,,,0.00,Wunderground v.1.15,2013-07-12 06:45:00,
2013-07-12 02:55:00,66.6,65.7,29.85,NNW,346,0.0,0.0,97,0.00,,,0.00,Wunderground v.1.15,2013-07-12 06:55:00,
2013-07-12 03:05:00,66.4,65.5,29.85,NNW,346,0.0,0.0,97,0.00,,,0.00,Wunderground v.1.15,2013-07-12 07:05:00,
2013-07-12 03:15:00,66.3,65.4,29.85,NNW,346,0.0,0.0,97,0.00,,,0.00,Wunderground v.1.15,2013-07-12 07:15:00,
2013-07-12 03:20:00,66.2,65.3,29.85,NNW,346,0.0,0.0,97,0.00,,,0.00,Wunderground v.1.15,2013-07-12 07:20:00,
2013-07-12 03:35:00,66.1,65.5,29.85,NNW,346,0.0,0.0,98,0.00,,,0.00,Wunderground v.1.15,2013-07-12 07:35:00,
2013-07-12 03:40:00,66.1,65.5,29.85,NNW,346,0.0,0.0,98,0.00,,,0.00,Wunderground v.1.15,2013-07-12 07:40:00,
2013-07-12 03:50:00,66.3,65.7,29.85,NNW,346,0.0,0.0,98,0.00,,,0.00,Wunderground v.1.15,2013-07-12 07:50:00,
2013-07-12 03:55:00,66.3,65.7,29.84,NNW,346,0.0,0.0,98,0.00,,,0.00,Wunderground v.1.15,2013-07-12 07:55:00,
2013-07-12 04:00:00,66.2,65.6,29.85,NNW,346,0.0,0.0,98,0.00,,,0.00,Wunderground v.1.15,2013-07-12 08:00:00,
2013-07-12 04:05:00,66.1,65.5,29.85,NNW,346,0.0,0.0,98,0.00,,,0.00,Wunderground v.1.15,2013-07-12 08:05:00,
2013-07-12 04:15:00,66.0,65.4,29.85,NNW,346,0.0,0.0,98,0.00,,,0.00,Wunderground v.1.15,2013-07-12 08:15:00,
2013-07-12 04:25:00,65.9,65.3,29.85,NNW,346,0.0,0.0,98,0.00,,,0.00,Wunderground v.1.15,2013-07-12 08:25:00,
2013-07-12 04:30:00,65.9,65.3,29.85,NNW,346,0.0,0.0,98,0.00,,,0.00,Wunderground v.1.15,2013-07-12 08:30:00,
2013-07-12 04:40:00,66.0,65.7,29.85,NNW,346,0.0,0.0,99,0.00,,,0.00,Wunderground v.1.15,2013-07-12 08:40:00,
2013-07-12 04:45:00,66.0,65.7,29.85,NNW,346,0.0,0.0,99,0.00,,,0.00,Wunderground v.1.15,2013-07-12 08:45:00,
2013-07-12 04:55:00,66.0,65.7,29.85,NNW,346,0.0,0.0,99,0.00,,,0.00,Wunderground v.1.15,2013-07-12 08:55:00,
2013-07-12 05:00:00,66.0,65.4,29.85,NNW,346,0.0,0.0,98,0.00,,,0.00,Wunderground v.1.15,2013-07-12 09:00:00,
2013-07-12 05:05:00,66.0,65.7,29.85,NNW,346,0.0,0.0,99,0.00,,,0.00,Wunderground v.1.15,2013-07-12 09:05:00,
2013-07-12 05:15:00,66.0,65.7,29.85,NNW,346,0.0,0.0,99,0.00,,,0.00,Wunderground v.1.15,2013-07-12 09:15:00,
2013-07-12 05:20:00,66.0,65.7,29.85,NNW,346,0.0,0.0,99,0.00,,,0.00,Wunderground v.1.15,2013-07-12 09:20:00,
2013-07-12 05:25:00,66.0,65.7,29.85,NNW,346,0.0,0.0,99,0.00,,,0.00,Wunderground v.1.15,2013-07-12 09:25:00,
2013-07-12 05:35:00,66.0,65.7,29.84,NNW,346,0.0,0.0,99,0.00,,,0.00,Wunderground v.1.15,2013-07-12 09:35:00,
2013-07-12 05:45:00,65.9,65.6,29.85,NNW,346,0.0,0.0,99,0.00,,,0.01,Wunderground v.1.15,2013-07-12 09:45:00,
2013-07-12 05:50:00,65.8,65.5,29.85,NNW,346,0.0,0.0,99,0.00,,,0.01,Wunderground v.1.15,2013-07-12 09:50:00,
2013-07-12 05:55:00,65.7,65.4,29.85,NNW,346,0.0,0.0,99,0.00,,,0.01,Wunderground v.1.15,2013-07-12 09:55:00,
2013-07-12 06:05:00,65.4,65.1,29.85,NNW,346,0.0,0.0,99,0.00,,,0.01,Wunderground v.1.15,2013-07-12 10:05:00,
2013-07-12 06:15:00,65.1,64.5,29.85,NNW,346,0.0,0.0,98,0.00,,,0.01,Wunderground v.1.15,2013-07-12 10:15:00,
2013-07-12 06:25:00,65.0,64.7,29.85,NNW,346,0.0,0.0,99,0.00,,,0.01,Wunderground v.1.15,2013-07-12 10:25:00,
2013-07-12 06:30:00,65.1,64.8,29.85,NNW,346,0.0,0.0,99,0.00,,,0.01,Wunderground v.1.15,2013-07-12 10:30:00,
2013-07-12 06:40:00,65.2,64.9,29.85,NNW,346,0.0,0.0,99,0.00,,,0.01,Wunderground v.1.15,2013-07-12 10:40:00,
2013-07-12 06:50:00,65.2,64.9,29.85,NNW,346,0.0,0.0,99,0.00,,,0.01,Wunderground v.1.15,2013-07-12 10:50:00,
2013-07-12 06:55:00,65.1,64.8,29.86,NNW,346,0.0,0.0,99,0.00,,,0.01,Wunderground v.1.15,2013-07-12 10:55:00,
2013-07-12 07:05:00,65.2,64.9,29.86,NNW,346,0.0,0.0,99,0.00,,,0.01,Wunderground v.1.15,2013-07-12 11:05:00,
2013-07-12 07:15:00,65.2,64.9,29.86,NNW,346,0.0,0.0,99,0.00,,,0.01,Wunderground v.1.15,2013-07-12 11:15:00,
2013-07-12 07:20:00,65.3,65.0,29.86,NNW,346,0.0,0.0,99,0.00,,,0.01,Wunderground v.1.15,2013-07-12 11:20:00,
2013-07-12 07:25:00,65.3,65.0,29.86,NNW,346,0.0,0.0,99,0.00,,,0.01,Wunderground v.1.15,2013-07-12 11:25:00,
2013-07-12 07:35:00,65.3,65.0,29.87,NNW,346,0.0,0.0,99,0.00,,,0.01,Wunderground v.1.15,2013-07-12 11:35:00,
2013-07-12 07:40:00,65.3,65.0,29.87,NNW,346,0.0,0.0,99,0.00,,,0.01,Wunderground v.1.15,2013-07-12 11:40:00,
2013-07-12 07:50:00,65.4,65.1,29.87,NNW,346,0.0,0.0,99,0.00,,,0.01,Wunderground v.1.15,2013-07-12 11:50:00,
2013-07-12 08:00:00,65.5,65.5,29.88,NNW,346,0.0,0.0,100,0.00,,,0.01,Wunderground v.1.15,2013-07-12 12:00:00,
2013-07-12 08:05:00,65.6,65.6,29.88,NNW,346,0.0,0.0,100,0.00,,,0.01,Wunderground v.1.15,2013-07-12 12:05:00,
2013-07-12 08:15:00,65.6,65.6,29.88,NNW,346,0.0,0.0,100,0.00,,,0.01,Wunderground v.1.15,2013-07-12 12:15:00,
2013-07-12 08:20:00,65.6,65.6,29.88,NNW,346,0.0,0.0,100,0.00,,,0.01,Wunderground v.1.15,2013-07-12 12:20:00,
2013-07-12 08:25:00,65.7,65.7,29.88,NNW,346,0.0,0.0,100,0.00,,,0.01,Wunderground v.1.15,2013-07-12 12:25:00,
2013-07-12 08:35:00,65.8,65.8,29.89,NNW,346,0.0,0.0,100,0.00,,,0.01,Wunderground v.1.15,2013-07-12 12:35:00,
2013-07-12 08:45:00,65.7,65.7,29.89,NNW,346,0.0,0.0,100,0.00,,,0.01,Wunderground v.1.15,2013-07-12 12:45:00,
2013-07-12 08:50:00,65.6,65.6,29.89,NNW,346,0.0,0.0,100,0.00,,,0.01,Wunderground v.1.15,2013-07-12 12:50:00,
2013-07-12 08:55:00,65.5,65.5,29.89,NNW,346,0.0,0.0,100,0.00,,,0.01,Wunderground v.1.15,2013-07-12 12:55:00,
2013-07-12 09:05:00,65.5,65.2,29.89,NNW,346,0.0,0.0,99,0.00,,,0.01,Wunderground v.1.15,2013-07-12 13:05:00,
2013-07-12 09:15:00,65.9,65.9,29.89,NNW,346,0.0,0.0,100,0.00,,,0.01,Wunderground v.1.15,2013-07-12 13:15:00,
2013-07-12 09:25:00,66.2,66.2,29.89,NNW,346,0.0,0.0,100,0.00,,,0.01,Wunderground v.1.15,2013-07-12 13:25:00,
2013-07-12 09:35:00,66.6,66.6,29.90,NNW,346,0.0,3.0,100,0.00,,,0.01,Wunderground v.1.15,2013-07-12 13:35:00,
2013-07-12 09:40:00,66.7,66.7,29.90,NNW,346,1.0,4.0,100,0.00,,,0.01,Wunderground v.1.15,2013-07-12 13:40:00,
2013-07-12 09:50:00,66.7,66.7,29.90,NNW,346,0.0,0.0,100,0.00,,,0.01,Wunderground v.1.15,2013-07-12 13:50:00,
2013-07-12 10:00:00,67.4,67.4,29.90,NNW,346,0.0,0.0,100,0.00,,,0.01,Wunderground v.1.15,2013-07-12 14:00:00,
2013-07-12 10:05:00,67.7,67.7,29.90,NNW,346,1.0,1.0,100,0.00,,,0.01,Wunderground v.1.15,2013-07-12 14:05:00,
2013-07-12 10:15:00,67.6,67.6,29.90,NNW,346,0.0,0.0,100,0.00,,,0.01,Wunderground v.1.15,2013-07-12 14:15:00,
2013-07-12 10:20:00,67.8,67.8,29.90,NNW,346,1.0,1.0,100,0.00,,,0.01,Wunderground v.1.15,2013-07-12 14:20:00,
2013-07-12 10:30:00,67.9,67.6,29.90,NNW,346,1.0,1.0,99,0.00,,,0.01,Wunderground v.1.15,2013-07-12 14:30:00,
2013-07-12 10:40:00,68.5,68.2,29.89,NNW,346,0.0,0.0,99,0.00,,,0.01,Wunderground v.1.15,2013-07-12 14:40:00,
2013-07-12 10:45:00,68.8,68.5,29.89,NNW,346,1.0,2.0,99,0.00,,,0.01,Wunderground v.1.15,2013-07-12 14:45:00,
2013-07-12 10:55:00,68.7,67.8,29.89,NNW,346,1.0,1.0,97,0.00,,,0.01,Wunderground v.1.15,2013-07-12 14:55:00,
2013-07-12 11:00:00,69.6,69.0,29.89,NNW,346,1.0,1.0,98,0.00,,,0.01,Wunderground v.1.15,2013-07-12 15:00:00,
2013-07-12 11:05:00,71.3,70.7,29.89,NNW,346,1.0,1.0,98,0.00,,,0.01,Wunderground v.1.15,2013-07-12 15:05:00,
2013-07-12 11:15:00,73.7,71.2,29.89,NNW,346,0.0,1.0,92,0.00,,,0.01,Wunderground v.1.15,2013-07-12 15:15:00,
2013-07-12 11:20:00,74.1,71.6,29.89,NNW,346,1.0,1.0,92,0.00,,,0.01,Wunderground v.1.15,2013-07-12 15:20:00,
2013-07-12 11:30:00,75.4,71.9,29.89,NNW,343,0.0,0.0,89,0.00,,,0.01,Wunderground v.1.15,2013-07-12 15:30:00,
2013-07-12 11:40:00,76.1,73.0,29.89,NNW,348,1.0,1.0,90,0.00,,,0.01,Wunderground v.1.15,2013-07-12 15:40:00,
2013-07-12 11:50:00,75.9,73.4,29.89,NNW,348,0.0,0.0,92,0.00,,,0.01,Wunderground v.1.15,2013-07-12 15:50:00,
2013-07-12 11:55:00,75.9,70.4,29.89,NNW,348,1.0,1.0,83,0.00,,,0.01,Wunderground v.1.15,2013-07-12 15:55:00,
2013-07-12 12:05:00,76.3,73.1,29.89,NNW,343,1.0,1.0,90,0.00,,,0.01,Wunderground v.1.15,2013-07-12 16:05:00,
2013-07-12 12:15:00,77.9,73.4,29.88,NNW,348,1.0,4.0,86,0.00,,,0.01,Wunderground v.1.15,2013-07-12 16:15:00,
2013-07-12 12:25:00,76.9,72.0,29.88,NNW,348,0.0,1.0,85,0.00,,,0.01,Wunderground v.1.15,2013-07-12 16:25:00,
2013-07-12 12:30:00,77.7,72.8,29.88,NNW,341,1.0,1.0,85,0.00,,,0.01,Wunderground v.1.15,2013-07-12 16:30:00,
2013-07-12 12:40:00,77.3,71.0,29.87,NNW,346,1.0,4.0,81,0.00,,,0.01,Wunderground v.1.15,2013-07-12 16:40:00,
2013-07-12 12:45:00,77.5,70.8,29.87,NNW,348,2.0,4.0,80,0.00,,,0.01,Wunderground v.1.15,2013-07-12 16:45:00,
2013-07-12 12:50:00,78.2,72.6,29.87,North,355,2.0,4.0,83,0.00,,,0.01,Wunderground v.1.15,2013-07-12 16:50:00,
2013-07-12 13:00:00,78.8,73.2,29.87,NNW,344,2.0,2.0,83,0.00,,,0.01,Wunderground v.1.15,2013-07-12 17:00:00,
2013-07-12 13:05:00,78.7,72.4,29.87,NNW,347,2.0,2.0,81,0.00,,,0.01,Wunderground v.1.15,2013-07-12 17:05:00,
2013-07-12 13:15:00,80.1,75.5,29.87,NNW,345,2.0,2.0,86,0.00,,,0.01,Wunderground v.1.15,2013-07-12 17:15:00,
2013-07-12 13:20:00,80.0,74.4,29.86,NNW,342,2.0,6.0,83,0.00,,,0.01,Wunderground v.1.15,2013-07-12 17:20:00,
2013-07-12 13:25:00,79.6,73.3,29.86,NNW,340,3.0,6.0,81,0.00,,,0.01,Wunderground v.1.15,2013-07-12 17:25:00,
2013-07-12 13:45:00,80.2,74.6,29.86,NNW,335,3.0,4.0,83,0.00,,,0.01,Wunderground v.1.15,2013-07-12 17:45:00,
2013-07-12 13:55:00,80.2,74.2,29.85,North,350,2.0,3.0,82,0.00,,,0.01,Wunderground v.1.15,2013-07-12 17:55:00,
2013-07-12 14:05:00,78.7,70.5,29.85,NNW,348,2.0,6.0,76,0.00,,,0.01,Wunderground v.1.15,2013-07-12 18:05:00,
2013-07-12 14:20:00,77.0,69.6,29.86,NNW,348,0.0,0.0,78,0.00,,,0.01,Wunderground v.1.15,2013-07-12 18:20:00,
2013-07-12 14:30:00,75.4,68.8,29.85,NNW,348,0.0,0.0,80,0.00,,,0.01,Wunderground v.1.15,2013-07-12 18:30:00,
2013-07-12 14:40:00,74.9,69.4,29.86,NNW,348,0.0,0.0,83,0.00,,,0.01,Wunderground v.1.15,2013-07-12 18:40:00,
2013-07-12 14:45:00,75.2,70.4,29.86,NNW,348,0.0,0.0,85,0.00,,,0.01,Wunderground v.1.15,2013-07-12 18:45:00,
2013-07-12 14:55:00,76.7,71.5,29.85,NNW,348,0.0,2.0,84,0.00,,,0.01,Wunderground v.1.15,2013-07-12 18:55:00,
2013-07-12 15:05:00,77.6,71.3,29.86,NNW,348,1.0,1.0,81,0.00,,,0.01,Wunderground v.1.15,2013-07-12 19:05:00,
2013-07-12 15:15:00,77.9,71.2,29.86,NNW,347,2.0,5.0,80,0.00,,,0.01,Wunderground v.1.15,2013-07-12 19:15:00,
2013-07-12 15:25:00,78.4,71.0,29.85,NNW,331,1.0,6.0,78,0.00,,,0.01,Wunderground v.1.15,2013-07-12 19:25:00,
2013-07-12 15:35:00,78.0,70.6,29.85,North,355,2.0,2.0,78,0.00,,,0.01,Wunderground v.1.15,2013-07-12 19:35:00,
2013-07-12 15:40:00,77.9,70.1,29.85,North,355,1.0,1.0,77,0.00,,,0.01,Wunderground v.1.15,2013-07-12 19:40:00,
2013-07-12 15:45:00,77.7,69.1,29.85,North,355,0.0,1.0,75,0.00,,,0.01,Wunderground v.1.15,2013-07-12 19:45:00,
2013-07-12 15:55:00,77.4,70.0,29.85,North,355,1.0,5.0,78,0.00,,,0.01,Wunderground v.1.15,2013-07-12 19:55:00,
2013-07-12 16:05:00,77.5,69.7,29.84,North,360,2.0,3.0,77,0.00,,,0.01,Wunderground v.1.15,2013-07-12 20:05:00,
2013-07-12 16:15:00,77.0,68.9,29.84,North,355,1.0,2.0,76,0.00,,,0.01,Wunderground v.1.15,2013-07-12 20:15:00,
2013-07-12 16:25:00,76.7,68.2,29.84,North,351,2.0,2.0,75,0.00,,,0.01,Wunderground v.1.15,2013-07-12 20:25:00,
2013-07-12 16:30:00,76.6,68.5,29.84,North,355,2.0,2.0,76,0.00,,,0.01,Wunderground v.1.15,2013-07-12 20:30:00,
2013-07-12 16:40:00,76.6,68.8,29.83,NNW,348,2.0,4.0,77,0.00,,,0.01,Wunderground v.1.15,2013-07-12 20:40:00,
2013-07-12 16:50:00,77.0,67.3,29.83,North,349,2.0,4.0,72,0.00,,,0.01,Wunderground v.1.15,2013-07-12 20:50:00,
2013-07-12 17:10:00,78.2,70.4,29.84,North,350,2.0,3.0,77,0.00,,,0.01,Wunderground v.1.15,2013-07-12 21:10:00,
2013-07-12 17:20:00,79.4,71.9,29.85,NNW,336,2.0,3.0,78,0.00,,,0.01,Wunderground v.1.15,2013-07-12 21:20:00,
2013-07-12 17:25:00,79.4,68.8,29.84,North,350,3.0,5.0,70,0.00,,,0.01,Wunderground v.1.15,2013-07-12 21:25:00,
2013-07-12 17:35:00,78.0,67.4,29.85,North,360,2.0,3.0,70,0.00,,,0.01,Wunderground v.1.15,2013-07-12 21:35:00,
2013-07-12 17:45:00,77.0,68.5,29.85,North,9,1.0,1.0,75,0.00,,,0.01,Wunderground v.1.15,2013-07-12 21:45:00,
2013-07-12 17:50:00,76.6,68.1,29.85,West,263,0.0,0.0,75,0.00,,,0.01,Wunderground v.1.15,2013-07-12 21:50:00,
2013-07-12 18:10:00,73.7,67.1,29.86,West,263,0.0,0.0,80,0.00,,,0.01,Wunderground v.1.15,2013-07-12 22:10:00,
2013-07-12 18:20:00,72.2,66.4,29.87,West,263,0.0,0.0,82,0.00,,,0.01,Wunderground v.1.15,2013-07-12 22:20:00,
2013-07-12 18:25:00,71.7,66.3,29.86,West,263,0.0,0.0,83,0.00,,,0.01,Wunderground v.1.15,2013-07-12 22:25:00,
2013-07-12 18:35:00,71.3,66.2,29.87,SSW,212,0.0,0.0,84,0.00,,,0.01,Wunderground v.1.15,2013-07-12 22:35:00,
2013-07-12 18:45:00,71.0,65.6,29.87,NNW,348,0.0,0.0,83,0.00,,,0.01,Wunderground v.1.15,2013-07-12 22:45:00,
2013-07-12 19:00:00,70.6,63.8,29.87,SW,235,1.0,1.0,79,0.00,,,0.01,Wunderground v.1.15,2013-07-12 23:00:00,
2013-07-12 19:05:00,70.4,63.9,29.87,North,355,1.0,2.0,80,0.00,,,0.01,Wunderground v.1.15,2013-07-12 23:05:00,
2013-07-12 19:30:00,69.8,65.1,29.87,West,263,0.0,0.0,85,0.00,,,0.01,Wunderground v.1.15,2013-07-12 23:30:00,
2013-07-12 19:40:00,69.7,65.7,29.88,WSW,250,0.0,0.0,87,0.00,,,0.01,Wunderground v.1.15,2013-07-12 23:40:00,
2013-07-12 19:45:00,69.7,66.0,29.88,WSW,250,0.0,0.0,88,0.00,,,0.01,Wunderground v.1.15,2013-07-12 23:45:00,
2013-07-12 19:55:00,69.5,65.8,29.88,WSW,254,0.0,0.0,88,0.00,,,0.01,Wunderground v.1.15,2013-07-12 23:55:00,
2013-07-12 20:10:00,69.1,65.7,29.89,SW,234,0.0,0.0,89,0.00,,,0.01,Wunderground v.1.15,2013-07-13 00:10:00,
2013-07-12 20:15:00,69.0,65.6,29.89,SW,234,0.0,0.0,89,0.00,,,0.01,Wunderground v.1.15,2013-07-13 00:15:00,
2013-07-12 20:25:00,68.8,65.4,29.89,SW,234,0.0,0.0,89,0.00,,,0.01,Wunderground v.1.15,2013-07-13 00:25:00,
2013-07-12 20:35:00,68.7,65.6,29.89,SSW,201,0.0,0.0,90,0.00,,,0.01,Wunderground v.1.15,2013-07-13 00:35:00,
2013-07-12 20:45:00,68.4,65.0,29.89,SSW,201,0.0,0.0,89,0.00,,,0.01,Wunderground v.1.15,2013-07-13 00:45:00,
2013-07-12 21:00:00,67.8,64.4,29.89,SSW,201,0.0,0.0,89,0.00,,,0.01,Wunderground v.1.15,2013-07-13 01:00:00,
2013-07-12 21:05:00,67.6,64.6,29.89,SSW,201,0.0,0.0,90,0.00,,,0.01,Wunderground v.1.15,2013-07-13 01:05:00,
2013-07-12 21:15:00,67.2,64.2,29.89,SSW,201,0.0,0.0,90,0.00,,,0.01,Wunderground v.1.15,2013-07-13 01:15:00,
2013-07-12 21:25:00,66.8,64.1,29.90,SSW,201,0.0,0.0,91,0.00,,,0.01,Wunderground v.1.15,2013-07-13 01:25:00,
2013-07-12 21:30:00,66.7,64.0,29.90,SSW,201,0.0,0.0,91,0.00,,,0.01,Wunderground v.1.15,2013-07-13 01:30:00,
2013-07-12 21:40:00,66.3,63.9,29.90,SSW,201,0.0,0.0,92,0.00,,,0.01,Wunderground v.1.15,2013-07-13 01:40:00,
2013-07-12 21:50:00,66.0,63.6,29.90,SSW,201,0.0,0.0,92,0.00,,,0.01,Wunderground v.1.15,2013-07-13 01:50:00,
2013-07-12 21:55:00,65.9,63.5,29.91,SSW,201,0.0,0.0,92,0.00,,,0.01,Wunderground v.1.15,2013-07-13 01:55:00,
2013-07-12 22:00:00,65.8,63.4,29.91,SSW,201,0.0,0.0,92,0.00,,,0.01,Wunderground v.1.15,2013-07-13 02:00:00,
2013-07-12 22:15:00,65.5,63.1,29.92,SSW,201,0.0,0.0,92,0.00,,,0.01,Wunderground v.1.15,2013-07-13 02:15:00,
2013-07-12 22:20:00,65.4,63.0,29.91,SSW,201,0.0,0.0,92,0.00,,,0.01,Wunderground v.1.15,2013-07-13 02:20:00,
2013-07-12 22:30:00,65.3,62.9,29.92,SSW,201,0.0,0.0,92,0.00,,,0.01,Wunderground v.1.15,2013-07-13 02:30:00,
2013-07-12 22:35:00,65.2,62.2,29.92,SSW,198,0.0,0.0,90,0.00,,,0.01,Wunderground v.1.15,2013-07-13 02:35:00,
2013-07-12 22:45:00,65.1,62.1,29.93,SSW,198,0.0,0.0,90,0.00,,,0.01,Wunderground v.1.15,2013-07-13 02:45:00,
2013-07-12 22:55:00,65.4,62.7,29.94,SSW,198,0.0,0.0,91,0.00,,,0.01,Wunderground v.1.15,2013-07-13 02:55:00,
2013-07-12 23:05:00,65.6,63.2,29.93,SSW,198,0.0,0.0,92,0.00,,,0.01,Wunderground v.1.15,2013-07-13 03:05:00,
2013-07-12 23:24:00,65.4,63.3,29.93,SSW,198,0.0,0.0,93,0.14,,,0.04,Wunderground v.1.15,2013-07-13 03:24:00,
2013-07-12 23:30:00,65.0,62.9,29.93,SSW,198,0.0,0.0,93,0.12,,,0.05,Wunderground v.1.15,2013-07-13 03:30:00,
2013-07-12 23:40:00,64.6,62.8,29.93,SSW,198,0.0,0.0,94,0.04,,,0.06,Wunderground v.1.15,2013-07-13 03:40:00,
2013-07-12 23:50:00,64.0,62.2,29.94,SSW,198,0.0,0.0,94,0.44,,,0.09,Wunderground v.1.15,2013-07-13 03:50:00,